Αρχική σελίδα
METAR-TAF:

METAR-TAF

Αεροδρόμια :

Wekweeti, Βορειοδυτικά Εδάφη, Καναδάς

γεωγραφικό πλάτος: 64-11-27N, γεωγραφικό μήκος: 114-04-36W, υψόμετρο: 368 μ

Παρών καιρός

Η αναφορά έγινε 20 λεπτά πριν, στις 21:00 UTC
Άνεμος 7 kt από Α
Θερμοκρασία 12°C
Υγρασία 44%
Πίεση 1016 hPa
Ορατότητα: 14.5 χλμ
Καθαρός ουρανός

METAR: CYWE 192100Z AUTO 09007KT 9SM CLR 12/M00 A3001 RMK SLP183

Χρόνος: 15:20 (21:20 UTC)

Πρόγνωση Καιρού

Η αναφορά έγινε 2 ώρες και 42 λεπτά πριν, στις 18:38 UTC
Η πρόγνωση ισχύει από τις 19 στις 19 UTC έως τις 20 στις 01 UTC
Άνεμος 10 kt από Α
Ορατότητα: 10 χλμ
Λίγα νέφη σε ύψος 12000 πόδια
Διάσπαρτα νέφη σε ύψος 20000 πόδια

TAF: CYWE 191838Z 1919/2001 09010KT P6SM FEW120 SCT200 RMK FCST BASED ON AUTO OBS. NXT FCST WILL BE ISSUED AT 201245Z

Μετεωρολογικές αναφορές και προγνώσεις για περισσότερα από 4000 αεροδρόμια (δελτία METAR και TAF).

Οι διαθέσιμοι σταθμοί απεικονίζονται στο χάρτη με κίτρινες και κόκκινες κουκκίδες.

Μετακινήστε το ποντίκι πάνω από τις κουκκίδες για να δείτε το όνομα του σταθμού.

Στη συνέχεια, κάντε κλικ για να δείτε τις μετεωρολογικές αναφορές και τις προγνώσεις καιρού.

Για να αλλάξετε το χάρτη: κάντε κλικ στα πράσινα κουμπιά με τον μαύρο σταυρό για να ζουμάρετε, στο πράσινο κουμπί με την παύλα για να αφαιρέσετε το ζουμ ή στα πράσινα βέλη για να αντιπαραβάλλετε χάρτες.


METAR-TAF: